Nearby METAR Reports

 

KSJC - San Jose, California, USA
Distance from station: NE 9mi, 14km
Updated: Wed, 20-Jan-2021 9:53pm PST
Clear
Clear
 Wind from SE
Wind: SE 5 mph , 7 km/h
Temperature: 46°F , 8°C
Wind Chill: 44°F , 7°C
Dew Point: 27°F , -3°C
Humidity: 46%
Barometer: 30.09 inHg , 1019 hPa
Clouds: Clear
Visibility: 10 miles , 16 km
2021/01/21 05:53 KSJC 210553Z 14004KT 10SM CLR 08/M03 A3009 RMK AO2 SLP188 T00781028 10194 20078 51004
KNUQ - Moffett Nas/Mtn, California, USA
Distance from station: N 9mi, 14km
Updated: Wed, 20-Jan-2021 9:55pm PST
Clear
Clear
 Wind from calm
Wind: Calm
Temperature: 48°F , 9°C
Dew Point: 28°F , -2°C
Humidity: 46%
Barometer: 30.09 inHg , 1019 hPa
Clouds: Clear
Visibility: 10 miles , 16 km
2021/01/21 05:55 KNUQ 210555Z AUTO 00000KT 10SM CLR 09/M02 A3009 RMK AO2
 
KPAO - Palo Alto, California, USA
Distance from station: NNW 14mi, 23km
Updated: Wed, 20-Jan-2021 6:47pm PST
NOT Current
Clear
Clear
 Wind from calm
Wind: Calm
Temperature: 52°F , 11°C
Dew Point: 32°F , 0°C
Humidity: 47%
Barometer: 30.06 inHg , 1017.9 hPa
Clouds: Clear
Visibility: 10 miles , 16 km
2021/01/21 02:47 KPAO 210247Z 00000KT 10SM SKC 11/00 A3006
KRHV - San Jose/Reid, California, USA
Distance from station: ENE 12mi, 19km
Updated: Wed, 20-Jan-2021 9:47pm PST
Clear
Clear
 Wind from calm
Wind: Calm
Temperature: 48°F , 9°C
Dew Point: 28°F , -2°C
Humidity: 46%
Barometer: 30.10 inHg , 1019.3 hPa
Clouds: Clear
Visibility: 10 miles , 16 km
2021/01/21 05:47 KRHV 210547Z 00000KT 10SM SKC 09/M02 A3010 RMK LAST
 
KOAK - Oakland, California, USA
Distance from station: NNW 31mi, 50km
Updated: Wed, 20-Jan-2021 9:53pm PST
Clear
Clear
 Wind from calm
Wind: Calm
Temperature: 52°F , 11°C
Dew Point: 30°F , -1°C
Humidity: 44%
Barometer: 30.10 inHg , 1019.3 hPa
Clouds: Clear
Visibility: 10 miles , 16 km
2021/01/21 05:53 KOAK 210553Z 00000KT 10SM CLR 11/M01 A3010 RMK AO2 SLP191 T01061006 10194 20089 50003
KSQL - San Carlos Airpo, California, USA
Distance from station: NW 21mi, 34km
Updated: Wed, 20-Jan-2021 9:55pm PST
Clear
Clear
 Wind from calm
Wind: Calm
Temperature: 50°F , 10°C
Dew Point: 27°F , -3°C
Humidity: 40%
Barometer: 30.09 inHg , 1019 hPa
Clouds: Clear
Visibility: 10 miles , 16 km
2021/01/21 05:55 KSQL 210555Z AUTO 00000KT 10SM CLR 10/M03 A3009 RMK AO2
 
KSFO - San Francisco, California, USA
Distance from station: NW 30mi, 49km
Updated: Wed, 20-Jan-2021 9:56pm PST
Clear
Clear
 Wind from WNW
Wind: WNW 5 mph , 7 km/h
Temperature: 54°F , 12°C
Dew Point: 28°F , -2°C
Humidity: 38%
Barometer: 30.08 inHg , 1018.6 hPa
Clouds: Clear
Visibility: 10 miles , 16 km
2021/01/21 05:56 KSFO 210556Z 30004KT 10SM CLR 12/M02 A3008 RMK AO2 SLP185 T01221017 10183 20117 50001
KE16 - San Martin, California, USA
Distance from station: ESE 27mi, 43km
Updated: Wed, 20-Jan-2021 9:55pm PST
Clear
Clear
 Wind from calm
Wind: Calm
Temperature: 46°F , 8°C
Dew Point: 28°F , -2°C
Humidity: 50%
Barometer: 30.11 inHg , 1019.6 hPa
Clouds: Clear
Visibility: 10 miles , 16 km
2021/01/21 05:55 KE16 210555Z AUTO 00000KT 10SM CLR 08/M02 A3011 RMK AO2 PWINO PNO
 
KWVI - Watsonville, California, USA
Distance from station: SSE 27mi, 44km
Updated: Wed, 20-Jan-2021 9:53pm PST
Clear
Clear
 Wind from NNW
Wind: NNW 3 mph , 6 km/h
Temperature: 48°F , 9°C
Dew Point: 34°F , 1°C
Humidity: 58%
Barometer: 30.08 inHg , 1018.6 hPa
Clouds: Clear
Visibility: 10 miles , 16 km
2021/01/21 05:53 KWVI 210553Z AUTO 34003KT 10SM CLR 09/01 A3008 RMK AO2 SLP186 T00940011 10200 20089 51006
KHAF - Half Moon Bay, California, USA
Distance from station: WNW 31mi, 50km
Updated: Wed, 20-Jan-2021 9:55pm PST
Clear
Clear
 Wind from NNE
Wind: NNE 3 mph , 6 km/h
Temperature: 45°F , 7°C
Dew Point: 25°F , -4°C
Humidity: 46%
Barometer: 30.09 inHg , 1019 hPa
Clouds: Clear
Visibility: 10 miles , 16 km
2021/01/21 05:55 KHAF 210555Z AUTO 03003KT 10SM CLR 07/M04 A3009 RMK AO2
 
KHWD - Hayward, California, USA
Distance from station: N 28mi, 44km
Updated: Wed, 20-Jan-2021 9:54pm PST
Clear
Clear
 Wind from ENE
Wind: ENE 5 mph , 7 km/h
Temperature: 50°F , 10°C
Wind Chill: 48°F , 9°C
Dew Point: 27°F , -3°C
Humidity: 40%
Barometer: 30.08 inHg , 1018.6 hPa
Clouds: Clear
Visibility: 10 miles , 16 km
2021/01/21 05:54 KHWD 210554Z AUTO 06004KT 10SM CLR 10/M03 A3008 RMK AO2 SLP196 T01001028 10172 20100 50003
KLVK - Livermore, California, USA
Distance from station: NNE 31mi, 51km
Updated: Wed, 20-Jan-2021 9:53pm PST
Clear
Clear
 Wind from E
Wind: E 3 mph , 6 km/h
Temperature: 45°F , 7°C
Dew Point: 25°F , -4°C
Humidity: 46%
Barometer: 30.09 inHg , 1019 hPa
Clouds: Clear
Visibility: 10 miles , 16 km
2021/01/21 05:53 KLVK 210553Z AUTO 10003KT 10SM CLR 07/M04 A3009 RMK AO2 SLP187 T00671044 10189 20056 51003